Flight Track Log - Related Links

Times and Time Zones

All times are in EST time to prevent confusion due to time zone crossing. See the N1732M flight status page for this flight to view local times or setup timezone preferences in your user account.

Time Position Orientation Groundspeed Altitude Reporting Facility
EST Latitude Longitude Course Direction KTS MPH feet Rate Location/Type
Thu 02:05:07 PM 28.1000 -80.6500 60° Northeast 89 102 400  Level Orlando TRACON
Thu 02:05:44 PM 28.1167 -80.6167 60° Northeast 99 114 700 495 Climbing Orlando TRACON
Thu 02:06:44 PM 28.1167 -80.6000 90° East 111 128 1,200 500 Climbing Orlando TRACON
Thu 02:07:44 PM 28.1333 -80.5500 69° East 120 138 1,700 450 Climbing Orlando TRACON
Thu 02:08:44 PM 28.1333 -80.5167 90° East 120 138 2,100 500 Climbing Orlando TRACON
Thu 02:09:44 PM 28.1667 -80.5000 24° Northeast 98 113 2,700 595 Climbing Orlando TRACON
Thu 02:10:45 PM 28.1833 -80.5000 360° North 108 124 3,300 149 Climbing Orlando TRACON
Thu 02:11:45 PM 28.1667 -80.5333 240° Southwest 126 145 3,000 -150 Descending Orlando TRACON
Thu 02:12:45 PM 28.1667 -80.5833 270° West 113 130 3,000 50 Level Orlando TRACON
Thu 02:13:45 PM 28.1667 -80.6167 270° West 106 122 3,100 50 Climbing Orlando TRACON
Thu 02:14:45 PM 28.1667 -80.6500 270° West 112 129 3,100 50 Level Orlando TRACON
Thu 02:15:45 PM 28.1833 -80.6833 300° West 119 137 3,200 50 Climbing Orlando TRACON
Thu 02:16:45 PM 28.1833 -80.7167 270° West 120 138 3,200 -100 Level Orlando TRACON
Thu 02:17:45 PM 28.2000 -80.7500 300° West 112 129 3,000 -397 Descending Orlando TRACON
Thu 02:18:46 PM 28.2167 -80.7667 319° Northwest 102 117 2,400 -397 Descending Orlando TRACON
Thu 02:19:46 PM 28.2500 -80.7833 336° Northwest 93 107 2,200 -100 Descending Orlando TRACON
Thu 02:20:46 PM 28.2667 -80.7833 360° North 90 104 2,200  Level Orlando TRACON
Thu 02:21:46 PM 28.3000 -80.8000 336° Northwest 101 116 2,200  Level Orlando TRACON
Thu 02:22:47 PM 28.3167 -80.8000 360° North 92 106 2,200  Level Orlando TRACON
Thu 02:23:47 PM 28.3500 -80.8000 360° North 95 109 2,200  Level Orlando TRACON
Thu 02:24:47 PM 28.3833 -80.8000 360° North 99 114 2,200  Level Orlando TRACON
Thu 02:25:53 PM 28.4000 -80.8000 360° North 98 113 2,200 -238 Level Orlando TRACON
Thu 02:26:53 PM 28.4333 -80.8000 360° North 106 122 1,700 -600 Descending Orlando TRACON
Thu 02:27:53 PM 28.4667 -80.8000 360° North 104 120 1,000 -626 Descending Orlando TRACON
Thu 02:28:48 PM 28.4833 -80.8000 360° North 99 114 500 52 Descending Orlando TRACON
Thu 02:29:48 PM 28.5167 -80.8000 360° North 92 106 1,100 600 Climbing Orlando TRACON
Thu 02:30:48 PM 28.5000 -80.8333 240° Southwest 99 114 1,700 550 Climbing Orlando TRACON
Thu 02:31:48 PM 28.4833 -80.8333 180° South 114 131 2,200 524 Climbing Orlando TRACON
Thu 02:32:54 PM 28.4333 -80.8333 180° South 117 135 2,800 425 Climbing Orlando TRACON
Thu 02:33:55 PM 28.4000 -80.8333 180° South 118 136 3,100 149 Climbing Orlando TRACON
Thu 02:34:55 PM 28.3667 -80.8167 156° South 144 166 3,100 50 Level Orlando TRACON
Thu 02:35:55 PM 28.3333 -80.8000 156° South 140 161 3,200  Climbing Orlando TRACON
Thu 02:36:55 PM 28.3000 -80.7833 156° South 136 157 3,100 -50 Descending Orlando TRACON
Thu 02:37:56 PM 28.2667 -80.7500 139° Southeast 133 153 3,100  Level Orlando TRACON
Thu 02:38:56 PM 28.2333 -80.7333 156° South 133 153 3,100  Level Orlando TRACON
Thu 02:39:56 PM 28.2167 -80.7000 120° Southeast 133 153 3,100 -48 Level Orlando TRACON
Thu 02:41:02 PM 28.1833 -80.6833 156° South 130 150 3,000 48 Descending Orlando TRACON
Thu 02:42:02 PM 28.1500 -80.6500 139° Southeast 125 144 3,200 100 Climbing Orlando TRACON
Thu 02:43:02 PM 28.1167 -80.6333 156° South 136 157 3,200 -50 Level Orlando TRACON
Thu 02:44:03 PM 28.0833 -80.6500 204° Southwest 130 150 3,100 -34 Descending Orlando TRACON
Thu 02:45:57 PM 28.1000 -80.7167 286° West 112 129 3,100 34 Level Orlando TRACON
Thu 02:46:57 PM 28.0833 -80.7500 240° Southwest 127 146 3,200  Climbing Orlando TRACON
Thu 02:47:58 PM 28.0667 -80.7667 221° Southwest 126 145 3,100  Descending Orlando TRACON
Thu 02:48:58 PM 28.0833 -80.7333 60° Northeast 129 148 3,200  Climbing Orlando TRACON
Thu 02:49:58 PM 28.0500 -80.7500 204° Southwest 122 140 3,100 -100 Descending Orlando TRACON
Thu 02:50:58 PM 28.0500 -80.7833 270° West 114 131 3,000 -350 Descending Orlando TRACON
Thu 02:51:58 PM 28.0667 -80.7833 360° North 111 128 2,400 -645 Descending Orlando TRACON
Thu 02:52:59 PM 28.0833 -80.7500 60° Northeast 121 139 1,700 -694 Descending Orlando TRACON
Thu 02:53:59 PM 28.1000 -80.7167 60° Northeast 116 133 1,000 -700 Descending Orlando TRACON

Login

Don't have an account? Register now (free) for customized features, flight alerts, and more!